sensor_id;sensor_type;location;lat;lon;timestamp;P1;durP1;ratioP1;P2;durP2;ratioP2
63005;SDS011;53704;52.532;6.426;2023-12-14T00:00:37;10.98;;;9.88;;
63005;SDS011;53704;52.532;6.426;2023-12-14T00:03:02;11.30;;;10.40;;
63005;SDS011;53704;52.532;6.426;2023-12-14T00:05:28;10.27;;;9.50;;
63005;SDS011;53704;52.532;6.426;2023-12-14T00:07:53;11.70;;;10.57;;
63005;SDS011;53704;52.532;6.426;2023-12-14T00:10:19;11.30;;;10.23;;
63005;SDS011;53704;52.532;6.426;2023-12-14T00:12:44;10.77;;;9.73;;
63005;SDS011;53704;52.532;6.426;2023-12-14T00:15:10;12.18;;;11.10;;
63005;SDS011;53704;52.532;6.426;2023-12-14T00:17:36;15.10;;;11.10;;
63005;SDS011;53704;52.532;6.426;2023-12-14T00:20:01;12.32;;;11.23;;
63005;SDS011;53704;52.532;6.426;2023-12-14T00:22:28;11.82;;;10.68;;
63005;SDS011;53704;52.532;6.426;2023-12-14T00:24:53;13.10;;;11.90;;
63005;SDS011;53704;52.532;6.426;2023-12-14T00:27:19;13.90;;;11.52;;
63005;SDS011;53704;52.532;6.426;2023-12-14T00:29:44;12.55;;;11.27;;
63005;SDS011;53704;52.532;6.426;2023-12-14T00:32:10;11.98;;;10.20;;
63005;SDS011;53704;52.532;6.426;2023-12-14T00:34:35;13.10;;;10.00;;
63005;SDS011;53704;52.532;6.426;2023-12-14T00:37:01;10.98;;;10.07;;
63005;SDS011;53704;52.532;6.426;2023-12-14T00:39:27;10.55;;;9.73;;
63005;SDS011;53704;52.532;6.426;2023-12-14T00:41:52;10.38;;;9.68;;
63005;SDS011;53704;52.532;6.426;2023-12-14T00:44:18;18.67;;;10.77;;
63005;SDS011;53704;52.532;6.426;2023-12-14T00:46:43;11.15;;;10.15;;
63005;SDS011;53704;52.532;6.426;2023-12-14T00:49:09;10.23;;;9.50;;
63005;SDS011;53704;52.532;6.426;2023-12-14T00:51:34;10.88;;;10.07;;
63005;SDS011;53704;52.532;6.426;2023-12-14T00:53:59;11.20;;;10.18;;
63005;SDS011;53704;52.532;6.426;2023-12-14T00:56:25;10.23;;;9.32;;
63005;SDS011;53704;52.532;6.426;2023-12-14T00:58:50;11.20;;;10.40;;
63005;SDS011;53704;52.532;6.426;2023-12-14T01:01:16;11.32;;;10.27;;
63005;SDS011;53704;52.532;6.426;2023-12-14T01:03:41;10.57;;;9.77;;
63005;SDS011;53704;52.532;6.426;2023-12-14T01:06:07;11.27;;;10.45;;
63005;SDS011;53704;52.532;6.426;2023-12-14T01:08:32;11.43;;;10.38;;
63005;SDS011;53704;52.532;6.426;2023-12-14T01:10:58;11.70;;;10.63;;
63005;SDS011;53704;52.532;6.426;2023-12-14T01:13:23;10.88;;;9.88;;
63005;SDS011;53704;52.532;6.426;2023-12-14T01:15:49;11.07;;;9.80;;
63005;SDS011;53704;52.532;6.426;2023-12-14T01:18:14;10.85;;;9.93;;
63005;SDS011;53704;52.532;6.426;2023-12-14T01:20:40;11.27;;;10.18;;
63005;SDS011;53704;52.532;6.426;2023-12-14T01:23:08;12.65;;;11.02;;
63005;SDS011;53704;52.532;6.426;2023-12-14T01:25:35;11.43;;;10.48;;
63005;SDS011;53704;52.532;6.426;2023-12-14T01:28:01;12.05;;;10.95;;
63005;SDS011;53704;52.532;6.426;2023-12-14T01:30:26;11.38;;;10.38;;
63005;SDS011;53704;52.532;6.426;2023-12-14T01:32:52;11.48;;;10.38;;
63005;SDS011;53704;52.532;6.426;2023-12-14T01:35:17;11.30;;;10.43;;
63005;SDS011;53704;52.532;6.426;2023-12-14T01:37:43;11.68;;;10.65;;
63005;SDS011;53704;52.532;6.426;2023-12-14T01:40:08;11.70;;;10.80;;
63005;SDS011;53704;52.532;6.426;2023-12-14T01:42:34;12.13;;;11.02;;
63005;SDS011;53704;52.532;6.426;2023-12-14T01:45:00;12.35;;;11.02;;
63005;SDS011;53704;52.532;6.426;2023-12-14T01:47:25;11.23;;;10.43;;
63005;SDS011;53704;52.532;6.426;2023-12-14T01:49:51;11.38;;;10.48;;
63005;SDS011;53704;52.532;6.426;2023-12-14T01:52:16;13.45;;;12.23;;
63005;SDS011;53704;52.532;6.426;2023-12-14T01:54:42;12.50;;;11.40;;
63005;SDS011;53704;52.532;6.426;2023-12-14T01:57:08;11.32;;;10.50;;
63005;SDS011;53704;52.532;6.426;2023-12-14T01:59:33;11.68;;;10.30;;
63005;SDS011;53704;52.532;6.426;2023-12-14T02:01:58;13.73;;;11.05;;
63005;SDS011;53704;52.532;6.426;2023-12-14T02:04:24;11.00;;;10.02;;
63005;SDS011;53704;52.532;6.426;2023-12-14T02:06:51;10.93;;;10.18;;
63005;SDS011;53704;52.532;6.426;2023-12-14T02:09:16;10.77;;;9.75;;
63005;SDS011;53704;52.532;6.426;2023-12-14T02:11:43;13.90;;;10.55;;
63005;SDS011;53704;52.532;6.426;2023-12-14T02:14:09;10.40;;;9.55;;
63005;SDS011;53704;52.532;6.426;2023-12-14T02:16:35;10.70;;;9.80;;
63005;SDS011;53704;52.532;6.426;2023-12-14T02:19:04;11.60;;;10.50;;
63005;SDS011;53704;52.532;6.426;2023-12-14T02:21:29;11.65;;;10.13;;
63005;SDS011;53704;52.532;6.426;2023-12-14T02:23:55;11.32;;;10.30;;
63005;SDS011;53704;52.532;6.426;2023-12-14T02:26:20;11.98;;;10.25;;
63005;SDS011;53704;52.532;6.426;2023-12-14T02:28:46;10.75;;;9.95;;
63005;SDS011;53704;52.532;6.426;2023-12-14T02:31:11;10.57;;;9.80;;
63005;SDS011;53704;52.532;6.426;2023-12-14T02:33:37;11.00;;;10.05;;
63005;SDS011;53704;52.532;6.426;2023-12-14T02:36:02;11.45;;;9.50;;
63005;SDS011;53704;52.532;6.426;2023-12-14T02:38:28;10.18;;;9.13;;
63005;SDS011;53704;52.532;6.426;2023-12-14T02:40:54;10.15;;;8.93;;
63005;SDS011;53704;52.532;6.426;2023-12-14T02:43:20;9.38;;;8.68;;
63005;SDS011;53704;52.532;6.426;2023-12-14T02:45:45;9.55;;;8.82;;
63005;SDS011;53704;52.532;6.426;2023-12-14T02:48:11;15.70;;;10.05;;
63005;SDS011;53704;52.532;6.426;2023-12-14T02:50:36;11.07;;;9.98;;
63005;SDS011;53704;52.532;6.426;2023-12-14T02:53:02;11.40;;;10.30;;
63005;SDS011;53704;52.532;6.426;2023-12-14T02:55:27;11.05;;;9.70;;
63005;SDS011;53704;52.532;6.426;2023-12-14T02:57:53;10.15;;;9.13;;
63005;SDS011;53704;52.532;6.426;2023-12-14T03:00:18;12.52;;;10.25;;
63005;SDS011;53704;52.532;6.426;2023-12-14T03:02:44;10.85;;;9.73;;
63005;SDS011;53704;52.532;6.426;2023-12-14T03:05:10;11.88;;;10.10;;
63005;SDS011;53704;52.532;6.426;2023-12-14T03:07:35;12.10;;;10.38;;
63005;SDS011;53704;52.532;6.426;2023-12-14T03:10:02;11.23;;;10.07;;
63005;SDS011;53704;52.532;6.426;2023-12-14T03:12:28;12.25;;;10.05;;
63005;SDS011;53704;52.532;6.426;2023-12-14T03:14:53;11.25;;;10.25;;
63005;SDS011;53704;52.532;6.426;2023-12-14T03:17:19;11.82;;;10.30;;
63005;SDS011;53704;52.532;6.426;2023-12-14T03:19:44;11.60;;;10.55;;
63005;SDS011;53704;52.532;6.426;2023-12-14T03:22:09;12.75;;;10.93;;
63005;SDS011;53704;52.532;6.426;2023-12-14T03:24:35;11.68;;;10.52;;
63005;SDS011;53704;52.532;6.426;2023-12-14T03:27:01;11.75;;;9.07;;
63005;SDS011;53704;52.532;6.426;2023-12-14T03:29:28;11.07;;;9.98;;
63005;SDS011;53704;52.532;6.426;2023-12-14T03:31:54;12.93;;;10.35;;
63005;SDS011;53704;52.532;6.426;2023-12-14T03:34:20;15.15;;;10.63;;
63005;SDS011;53704;52.532;6.426;2023-12-14T03:36:46;11.10;;;9.93;;
63005;SDS011;53704;52.532;6.426;2023-12-14T03:39:11;10.88;;;9.88;;
63005;SDS011;53704;52.532;6.426;2023-12-14T03:41:37;12.57;;;10.95;;
63005;SDS011;53704;52.532;6.426;2023-12-14T03:44:02;13.27;;;10.10;;
63005;SDS011;53704;52.532;6.426;2023-12-14T03:46:29;12.10;;;10.70;;
63005;SDS011;53704;52.532;6.426;2023-12-14T03:48:54;16.42;;;10.55;;
63005;SDS011;53704;52.532;6.426;2023-12-14T03:51:20;12.05;;;10.05;;
63005;SDS011;53704;52.532;6.426;2023-12-14T03:53:46;15.90;;;10.18;;
63005;SDS011;53704;52.532;6.426;2023-12-14T03:56:11;13.27;;;10.35;;
63005;SDS011;53704;52.532;6.426;2023-12-14T03:58:37;13.88;;;10.82;;
63005;SDS011;53704;52.532;6.426;2023-12-14T04:01:02;17.25;;;10.63;;
63005;SDS011;53704;52.532;6.426;2023-12-14T04:03:28;12.15;;;10.48;;
63005;SDS011;53704;52.532;6.426;2023-12-14T04:05:53;12.57;;;10.07;;
63005;SDS011;53704;52.532;6.426;2023-12-14T04:08:19;11.23;;;9.02;;
63005;SDS011;53704;52.532;6.426;2023-12-14T04:10:44;10.90;;;9.98;;
63005;SDS011;53704;52.532;6.426;2023-12-14T04:13:10;18.00;;;10.50;;
63005;SDS011;53704;52.532;6.426;2023-12-14T04:15:36;12.10;;;9.80;;
63005;SDS011;53704;52.532;6.426;2023-12-14T04:18:02;13.38;;;9.85;;
63005;SDS011;53704;52.532;6.426;2023-12-14T04:20:27;10.63;;;9.43;;
63005;SDS011;53704;52.532;6.426;2023-12-14T04:22:53;12.93;;;10.63;;
63005;SDS011;53704;52.532;6.426;2023-12-14T04:25:18;11.52;;;9.50;;
63005;SDS011;53704;52.532;6.426;2023-12-14T04:27:44;11.57;;;9.40;;
63005;SDS011;53704;52.532;6.426;2023-12-14T04:30:09;13.25;;;9.63;;
63005;SDS011;53704;52.532;6.426;2023-12-14T04:32:36;10.18;;;9.05;;
63005;SDS011;53704;52.532;6.426;2023-12-14T04:35:02;14.02;;;9.85;;
63005;SDS011;53704;52.532;6.426;2023-12-14T04:37:29;13.40;;;9.70;;
63005;SDS011;53704;52.532;6.426;2023-12-14T04:39:55;11.73;;;10.52;;
63005;SDS011;53704;52.532;6.426;2023-12-14T04:42:20;10.32;;;9.13;;
63005;SDS011;53704;52.532;6.426;2023-12-14T04:44:46;10.95;;;9.23;;
63005;SDS011;53704;52.532;6.426;2023-12-14T04:47:12;9.88;;;8.50;;
63005;SDS011;53704;52.532;6.426;2023-12-14T04:49:37;9.25;;;8.20;;
63005;SDS011;53704;52.532;6.426;2023-12-14T04:52:02;12.65;;;10.00;;
63005;SDS011;53704;52.532;6.426;2023-12-14T04:54:28;14.85;;;9.48;;
63005;SDS011;53704;52.532;6.426;2023-12-14T04:56:54;21.83;;;10.93;;
63005;SDS011;53704;52.532;6.426;2023-12-14T04:59:19;9.77;;;8.88;;
63005;SDS011;53704;52.532;6.426;2023-12-14T05:01:45;10.73;;;8.57;;
63005;SDS011;53704;52.532;6.426;2023-12-14T05:04:10;10.70;;;9.73;;
63005;SDS011;53704;52.532;6.426;2023-12-14T05:06:36;10.38;;;9.45;;
63005;SDS011;53704;52.532;6.426;2023-12-14T05:09:03;12.32;;;10.07;;
63005;SDS011;53704;52.532;6.426;2023-12-14T05:11:30;12.05;;;9.80;;
63005;SDS011;53704;52.532;6.426;2023-12-14T05:13:56;17.50;;;9.57;;
63005;SDS011;53704;52.532;6.426;2023-12-14T05:16:21;11.05;;;9.57;;
63005;SDS011;53704;52.532;6.426;2023-12-14T05:18:51;12.35;;;10.45;;
63005;SDS011;53704;52.532;6.426;2023-12-14T05:21:17;10.20;;;8.63;;
63005;SDS011;53704;52.532;6.426;2023-12-14T05:23:43;13.52;;;8.77;;
63005;SDS011;53704;52.532;6.426;2023-12-14T05:26:08;10.43;;;8.82;;
63005;SDS011;53704;52.532;6.426;2023-12-14T05:28:34;8.90;;;8.18;;
63005;SDS011;53704;52.532;6.426;2023-12-14T05:31:00;8.82;;;8.23;;
63005;SDS011;53704;52.532;6.426;2023-12-14T05:33:25;8.75;;;7.95;;
63005;SDS011;53704;52.532;6.426;2023-12-14T05:35:51;8.80;;;7.90;;
63005;SDS011;53704;52.532;6.426;2023-12-14T05:38:17;8.82;;;7.95;;
63005;SDS011;53704;52.532;6.426;2023-12-14T05:40:43;9.90;;;8.88;;
63005;SDS011;53704;52.532;6.426;2023-12-14T05:43:09;9.07;;;8.30;;
63005;SDS011;53704;52.532;6.426;2023-12-14T05:45:35;9.52;;;8.63;;
63005;SDS011;53704;52.532;6.426;2023-12-14T05:48:01;8.85;;;7.95;;
63005;SDS011;53704;52.532;6.426;2023-12-14T05:50:27;9.38;;;8.68;;
63005;SDS011;53704;52.532;6.426;2023-12-14T05:52:52;10.20;;;8.52;;
63005;SDS011;53704;52.532;6.426;2023-12-14T05:55:18;8.75;;;8.00;;
63005;SDS011;53704;52.532;6.426;2023-12-14T05:57:47;8.95;;;8.05;;
63005;SDS011;53704;52.532;6.426;2023-12-14T06:00:13;11.77;;;9.05;;
63005;SDS011;53704;52.532;6.426;2023-12-14T06:02:39;10.07;;;8.15;;
63005;SDS011;53704;52.532;6.426;2023-12-14T06:05:05;11.77;;;8.73;;
63005;SDS011;53704;52.532;6.426;2023-12-14T06:07:31;11.52;;;9.02;;
63005;SDS011;53704;52.532;6.426;2023-12-14T06:09:57;12.38;;;8.25;;
63005;SDS011;53704;52.532;6.426;2023-12-14T06:12:23;8.93;;;8.30;;
63005;SDS011;53704;52.532;6.426;2023-12-14T06:14:48;11.60;;;9.63;;
63005;SDS011;53704;52.532;6.426;2023-12-14T06:17:15;11.57;;;8.50;;
63005;SDS011;53704;52.532;6.426;2023-12-14T06:19:40;9.90;;;8.85;;
63005;SDS011;53704;52.532;6.426;2023-12-14T06:22:06;9.32;;;8.55;;
63005;SDS011;53704;52.532;6.426;2023-12-14T06:24:32;10.00;;;9.00;;
63005;SDS011;53704;52.532;6.426;2023-12-14T06:26:57;9.43;;;8.27;;
63005;SDS011;53704;52.532;6.426;2023-12-14T06:29:23;11.40;;;9.45;;
63005;SDS011;53704;52.532;6.426;2023-12-14T06:31:48;9.23;;;8.38;;
63005;SDS011;53704;52.532;6.426;2023-12-14T06:34:15;9.95;;;8.95;;
63005;SDS011;53704;52.532;6.426;2023-12-14T06:36:41;9.82;;;8.85;;
63005;SDS011;53704;52.532;6.426;2023-12-14T06:39:10;10.20;;;8.63;;
63005;SDS011;53704;52.532;6.426;2023-12-14T06:41:36;14.23;;;9.20;;
63005;SDS011;53704;52.532;6.426;2023-12-14T06:44:02;13.68;;;9.00;;
63005;SDS011;53704;52.532;6.426;2023-12-14T06:46:28;13.27;;;8.82;;
63005;SDS011;53704;52.532;6.426;2023-12-14T06:48:53;15.88;;;8.98;;
63005;SDS011;53704;52.532;6.426;2023-12-14T06:51:20;14.95;;;9.52;;
63005;SDS011;53704;52.532;6.426;2023-12-14T06:53:46;12.05;;;9.18;;
63005;SDS011;53704;52.532;6.426;2023-12-14T06:56:12;8.73;;;8.02;;
63005;SDS011;53704;52.532;6.426;2023-12-14T06:58:39;10.10;;;9.10;;
63005;SDS011;53704;52.532;6.426;2023-12-14T07:01:05;14.60;;;8.35;;
63005;SDS011;53704;52.532;6.426;2023-12-14T07:03:31;10.18;;;8.27;;
63005;SDS011;53704;52.532;6.426;2023-12-14T07:05:57;9.50;;;8.57;;
63005;SDS011;53704;52.532;6.426;2023-12-14T07:08:23;8.52;;;7.78;;
63005;SDS011;53704;52.532;6.426;2023-12-14T07:10:49;10.50;;;8.40;;
63005;SDS011;53704;52.532;6.426;2023-12-14T07:13:15;13.05;;;8.55;;
63005;SDS011;53704;52.532;6.426;2023-12-14T07:15:40;12.52;;;9.10;;
63005;SDS011;53704;52.532;6.426;2023-12-14T07:18:05;10.27;;;7.82;;
63005;SDS011;53704;52.532;6.426;2023-12-14T07:20:31;9.50;;;8.60;;
63005;SDS011;53704;52.532;6.426;2023-12-14T07:22:56;9.43;;;8.55;;
63005;SDS011;53704;52.532;6.426;2023-12-14T07:25:22;15.02;;;8.70;;
63005;SDS011;53704;52.532;6.426;2023-12-14T07:27:47;10.93;;;8.27;;
63005;SDS011;53704;52.532;6.426;2023-12-14T07:30:13;11.10;;;7.95;;
63005;SDS011;53704;52.532;6.426;2023-12-14T07:32:38;10.05;;;9.20;;
63005;SDS011;53704;52.532;6.426;2023-12-14T07:35:04;9.93;;;8.93;;
63005;SDS011;53704;52.532;6.426;2023-12-14T07:37:30;11.00;;;8.23;;
63005;SDS011;53704;52.532;6.426;2023-12-14T07:39:55;10.82;;;9.13;;
63005;SDS011;53704;52.532;6.426;2023-12-14T07:42:21;10.57;;;9.15;;
63005;SDS011;53704;52.532;6.426;2023-12-14T07:44:47;10.70;;;8.10;;
63005;SDS011;53704;52.532;6.426;2023-12-14T07:47:12;14.88;;;9.25;;
63005;SDS011;53704;52.532;6.426;2023-12-14T07:49:38;17.95;;;9.75;;
63005;SDS011;53704;52.532;6.426;2023-12-14T07:52:04;11.18;;;9.85;;
63005;SDS011;53704;52.532;6.426;2023-12-14T07:54:30;10.35;;;9.35;;
63005;SDS011;53704;52.532;6.426;2023-12-14T07:56:55;11.00;;;9.65;;
63005;SDS011;53704;52.532;6.426;2023-12-14T07:59:20;11.68;;;10.60;;
63005;SDS011;53704;52.532;6.426;2023-12-14T08:01:46;13.98;;;9.98;;
63005;SDS011;53704;52.532;6.426;2023-12-14T08:04:12;19.02;;;11.43;;
63005;SDS011;53704;52.532;6.426;2023-12-14T08:06:37;14.07;;;9.93;;
63005;SDS011;53704;52.532;6.426;2023-12-14T08:09:06;12.60;;;9.93;;
63005;SDS011;53704;52.532;6.426;2023-12-14T08:11:32;15.13;;;10.70;;
63005;SDS011;53704;52.532;6.426;2023-12-14T08:13:58;14.00;;;10.18;;
63005;SDS011;53704;52.532;6.426;2023-12-14T08:16:23;14.52;;;10.70;;
63005;SDS011;53704;52.532;6.426;2023-12-14T08:18:49;14.43;;;10.88;;
63005;SDS011;53704;52.532;6.426;2023-12-14T08:21:15;16.52;;;11.27;;
63005;SDS011;53704;52.532;6.426;2023-12-14T08:23:41;14.70;;;11.88;;
63005;SDS011;53704;52.532;6.426;2023-12-14T08:26:07;13.88;;;10.05;;
63005;SDS011;53704;52.532;6.426;2023-12-14T08:28:33;12.65;;;10.45;;
63005;SDS011;53704;52.532;6.426;2023-12-14T08:30:59;13.50;;;10.48;;
63005;SDS011;53704;52.532;6.426;2023-12-14T08:33:28;20.45;;;10.85;;
63005;SDS011;53704;52.532;6.426;2023-12-14T08:35:54;16.60;;;10.57;;
63005;SDS011;53704;52.532;6.426;2023-12-14T08:38:20;13.90;;;10.95;;
63005;SDS011;53704;52.532;6.426;2023-12-14T08:40:46;15.35;;;10.80;;
63005;SDS011;53704;52.532;6.426;2023-12-14T08:43:11;12.70;;;11.32;;
63005;SDS011;53704;52.532;6.426;2023-12-14T08:45:37;14.25;;;9.50;;
63005;SDS011;53704;52.532;6.426;2023-12-14T08:48:03;15.93;;;9.20;;
63005;SDS011;53704;52.532;6.426;2023-12-14T08:50:29;15.48;;;10.27;;
63005;SDS011;53704;52.532;6.426;2023-12-14T08:52:54;11.05;;;9.40;;
63005;SDS011;53704;52.532;6.426;2023-12-14T08:55:53;13.32;;;9.30;;
63005;SDS011;53704;52.532;6.426;2023-12-14T08:58:12;19.63;;;11.05;;
63005;SDS011;53704;52.532;6.426;2023-12-14T09:00:38;16.92;;;10.85;;
63005;SDS011;53704;52.532;6.426;2023-12-14T09:03:03;12.30;;;9.73;;
63005;SDS011;53704;52.532;6.426;2023-12-14T09:05:29;12.38;;;10.35;;
63005;SDS011;53704;52.532;6.426;2023-12-14T09:07:54;17.85;;;10.05;;
63005;SDS011;53704;52.532;6.426;2023-12-14T09:10:21;13.00;;;9.65;;
63005;SDS011;53704;52.532;6.426;2023-12-14T09:12:47;18.63;;;9.25;;
63005;SDS011;53704;52.532;6.426;2023-12-14T09:15:13;13.50;;;9.55;;
63005;SDS011;53704;52.532;6.426;2023-12-14T09:17:40;14.73;;;10.38;;
63005;SDS011;53704;52.532;6.426;2023-12-14T09:20:07;11.38;;;9.35;;
63005;SDS011;53704;52.532;6.426;2023-12-14T09:22:33;15.32;;;10.52;;
63005;SDS011;53704;52.532;6.426;2023-12-14T09:24:59;18.10;;;10.52;;
63005;SDS011;53704;52.532;6.426;2023-12-14T09:27:24;18.80;;;9.98;;
63005;SDS011;53704;52.532;6.426;2023-12-14T09:29:50;11.38;;;9.95;;
63005;SDS011;53704;52.532;6.426;2023-12-14T09:32:16;10.80;;;9.15;;
63005;SDS011;53704;52.532;6.426;2023-12-14T09:34:42;12.20;;;9.65;;
63005;SDS011;53704;52.532;6.426;2023-12-14T09:37:08;13.48;;;10.23;;
63005;SDS011;53704;52.532;6.426;2023-12-14T09:39:33;14.27;;;9.80;;
63005;SDS011;53704;52.532;6.426;2023-12-14T09:42:02;17.85;;;10.70;;
63005;SDS011;53704;52.532;6.426;2023-12-14T09:44:29;12.65;;;10.70;;
63005;SDS011;53704;52.532;6.426;2023-12-14T09:46:56;15.55;;;10.27;;
63005;SDS011;53704;52.532;6.426;2023-12-14T09:49:24;12.07;;;10.75;;
63005;SDS011;53704;52.532;6.426;2023-12-14T09:51:54;18.08;;;10.43;;
63005;SDS011;53704;52.532;6.426;2023-12-14T09:54:23;20.55;;;10.18;;
63005;SDS011;53704;52.532;6.426;2023-12-14T09:56:50;19.65;;;10.70;;
63005;SDS011;53704;52.532;6.426;2023-12-14T09:59:17;15.23;;;10.18;;
63005;SDS011;53704;52.532;6.426;2023-12-14T10:01:42;16.17;;;10.32;;
63005;SDS011;53704;52.532;6.426;2023-12-14T10:04:09;14.88;;;9.80;;
63005;SDS011;53704;52.532;6.426;2023-12-14T10:06:36;13.02;;;9.93;;
63005;SDS011;53704;52.532;6.426;2023-12-14T10:09:03;9.55;;;8.63;;
63005;SDS011;53704;52.532;6.426;2023-12-14T10:11:29;13.75;;;8.63;;
63005;SDS011;53704;52.532;6.426;2023-12-14T10:13:55;15.55;;;10.10;;
63005;SDS011;53704;52.532;6.426;2023-12-14T10:16:30;11.32;;;9.80;;
63005;SDS011;53704;52.532;6.426;2023-12-14T10:18:57;16.73;;;9.57;;
63005;SDS011;53704;52.532;6.426;2023-12-14T10:21:24;11.48;;;9.18;;
63005;SDS011;53704;52.532;6.426;2023-12-14T10:23:51;20.92;;;10.65;;
63005;SDS011;53704;52.532;6.426;2023-12-14T10:26:17;10.40;;;9.35;;
63005;SDS011;53704;52.532;6.426;2023-12-14T10:28:42;12.95;;;8.57;;
63005;SDS011;53704;52.532;6.426;2023-12-14T10:31:10;11.82;;;10.02;;
63005;SDS011;53704;52.532;6.426;2023-12-14T10:33:36;10.65;;;8.98;;
63005;SDS011;53704;52.532;6.426;2023-12-14T10:36:03;10.43;;;8.88;;
63005;SDS011;53704;52.532;6.426;2023-12-14T10:38:29;16.08;;;9.30;;
63005;SDS011;53704;52.532;6.426;2023-12-14T10:40:56;9.98;;;8.70;;
63005;SDS011;53704;52.532;6.426;2023-12-14T10:43:23;11.07;;;9.25;;
63005;SDS011;53704;52.532;6.426;2023-12-14T10:45:49;9.45;;;8.55;;
63005;SDS011;53704;52.532;6.426;2023-12-14T10:48:19;13.77;;;9.65;;
63005;SDS011;53704;52.532;6.426;2023-12-14T10:50:45;12.45;;;9.48;;
63005;SDS011;53704;52.532;6.426;2023-12-14T10:53:13;11.93;;;9.30;;
63005;SDS011;53704;52.532;6.426;2023-12-14T10:55:43;16.77;;;9.85;;
63005;SDS011;53704;52.532;6.426;2023-12-14T10:58:10;11.35;;;9.13;;
63005;SDS011;53704;52.532;6.426;2023-12-14T11:00:36;11.02;;;9.93;;
63005;SDS011;53704;52.532;6.426;2023-12-14T11:03:05;10.55;;;9.45;;
63005;SDS011;53704;52.532;6.426;2023-12-14T11:05:32;10.80;;;9.70;;
63005;SDS011;53704;52.532;6.426;2023-12-14T11:08:02;10.90;;;9.25;;
63005;SDS011;53704;52.532;6.426;2023-12-14T11:10:38;12.75;;;10.32;;
63005;SDS011;53704;52.532;6.426;2023-12-14T11:13:12;13.70;;;12.30;;
63005;SDS011;53704;52.532;6.426;2023-12-14T11:15:48;34.25;;;22.17;;
63005;SDS011;53704;52.532;6.426;2023-12-14T11:23:14;15.75;;;10.55;;
63005;SDS011;53704;52.532;6.426;2023-12-14T11:26:05;9.90;;;8.88;;
63005;SDS011;53704;52.532;6.426;2023-12-14T11:28:37;11.25;;;9.43;;
63005;SDS011;53704;52.532;6.426;2023-12-14T11:31:12;7.32;;;6.63;;
63005;SDS011;53704;52.532;6.426;2023-12-14T11:33:38;7.15;;;5.45;;
63005;SDS011;53704;52.532;6.426;2023-12-14T11:36:03;5.68;;;5.07;;
63005;SDS011;53704;52.532;6.426;2023-12-14T11:38:31;8.57;;;7.15;;
63005;SDS011;53704;52.532;6.426;2023-12-14T11:40:58;5.75;;;5.03;;
63005;SDS011;53704;52.532;6.426;2023-12-14T11:43:24;5.60;;;5.03;;
63005;SDS011;53704;52.532;6.426;2023-12-14T11:45:51;7.65;;;5.70;;
63005;SDS011;53704;52.532;6.426;2023-12-14T11:48:17;6.60;;;6.10;;
63005;SDS011;53704;52.532;6.426;2023-12-14T11:50:45;6.70;;;6.30;;
63005;SDS011;53704;52.532;6.426;2023-12-14T11:53:12;8.18;;;6.43;;
63005;SDS011;53704;52.532;6.426;2023-12-14T11:55:39;8.65;;;6.45;;
63005;SDS011;53704;52.532;6.426;2023-12-14T11:58:06;7.38;;;6.28;;
63005;SDS011;53704;52.532;6.426;2023-12-14T12:00:33;8.73;;;6.57;;
63005;SDS011;53704;52.532;6.426;2023-12-14T12:08:15;7.10;;;6.38;;
63005;SDS011;53704;52.532;6.426;2023-12-14T12:10:44;9.75;;;6.57;;
63005;SDS011;53704;52.532;6.426;2023-12-14T12:13:14;10.70;;;7.28;;
63005;SDS011;53704;52.532;6.426;2023-12-14T12:15:41;9.15;;;6.78;;
63005;SDS011;53704;52.532;6.426;2023-12-14T12:18:11;10.98;;;7.55;;
63005;SDS011;53704;52.532;6.426;2023-12-14T12:20:37;11.23;;;8.82;;
63005;SDS011;53704;52.532;6.426;2023-12-14T12:23:03;11.52;;;9.55;;
63005;SDS011;53704;52.532;6.426;2023-12-14T12:25:29;14.82;;;8.55;;
63005;SDS011;53704;52.532;6.426;2023-12-14T12:27:58;10.35;;;8.68;;
63005;SDS011;53704;52.532;6.426;2023-12-14T12:30:25;15.75;;;8.77;;
63005;SDS011;53704;52.532;6.426;2023-12-14T12:32:50;9.65;;;8.68;;
63005;SDS011;53704;52.532;6.426;2023-12-14T12:35:20;10.27;;;8.05;;
63005;SDS011;53704;52.532;6.426;2023-12-14T12:37:45;9.10;;;8.30;;
63005;SDS011;53704;52.532;6.426;2023-12-14T12:40:11;14.80;;;8.27;;
63005;SDS011;53704;52.532;6.426;2023-12-14T12:42:37;11.15;;;9.82;;
63005;SDS011;53704;52.532;6.426;2023-12-14T12:45:04;8.65;;;7.82;;
63005;SDS011;53704;52.532;6.426;2023-12-14T12:47:30;9.15;;;8.32;;
63005;SDS011;53704;52.532;6.426;2023-12-14T12:49:55;9.60;;;8.70;;
63005;SDS011;53704;52.532;6.426;2023-12-14T12:52:21;19.80;;;10.40;;
63005;SDS011;53704;52.532;6.426;2023-12-14T12:54:46;13.27;;;9.52;;
63005;SDS011;53704;52.532;6.426;2023-12-14T12:57:12;17.23;;;8.77;;
63005;SDS011;53704;52.532;6.426;2023-12-14T12:59:37;10.32;;;9.02;;
63005;SDS011;53704;52.532;6.426;2023-12-14T13:02:03;12.82;;;8.73;;
63005;SDS011;53704;52.532;6.426;2023-12-14T13:04:29;12.02;;;9.35;;
63005;SDS011;53704;52.532;6.426;2023-12-14T13:06:58;17.27;;;9.55;;
63005;SDS011;53704;52.532;6.426;2023-12-14T13:09:23;9.13;;;8.23;;
63005;SDS011;53704;52.532;6.426;2023-12-14T13:11:49;9.80;;;8.63;;
63005;SDS011;53704;52.532;6.426;2023-12-14T13:14:15;11.73;;;9.20;;
63005;SDS011;53704;52.532;6.426;2023-12-14T13:16:41;16.33;;;10.07;;
63005;SDS011;53704;52.532;6.426;2023-12-14T13:19:08;20.80;;;9.18;;
63005;SDS011;53704;52.532;6.426;2023-12-14T13:21:33;12.43;;;8.98;;
63005;SDS011;53704;52.532;6.426;2023-12-14T13:23:59;17.80;;;11.02;;
63005;SDS011;53704;52.532;6.426;2023-12-14T13:26:24;14.15;;;8.60;;
63005;SDS011;53704;52.532;6.426;2023-12-14T13:28:53;10.63;;;8.68;;
63005;SDS011;53704;52.532;6.426;2023-12-14T13:31:19;14.57;;;8.85;;
63005;SDS011;53704;52.532;6.426;2023-12-14T13:33:45;13.50;;;8.20;;
63005;SDS011;53704;52.532;6.426;2023-12-14T13:36:12;10.80;;;8.20;;
63005;SDS011;53704;52.532;6.426;2023-12-14T13:38:38;13.95;;;9.10;;
63005;SDS011;53704;52.532;6.426;2023-12-14T13:41:03;9.95;;;8.85;;
63005;SDS011;53704;52.532;6.426;2023-12-14T13:43:29;14.10;;;7.90;;
63005;SDS011;53704;52.532;6.426;2023-12-14T13:45:55;9.25;;;8.40;;
63005;SDS011;53704;52.532;6.426;2023-12-14T13:48:26;11.55;;;8.45;;
63005;SDS011;53704;52.532;6.426;2023-12-14T13:50:55;8.35;;;7.50;;
63005;SDS011;53704;52.532;6.426;2023-12-14T13:53:22;9.02;;;7.93;;
63005;SDS011;53704;52.532;6.426;2023-12-14T13:55:48;12.98;;;9.93;;
63005;SDS011;53704;52.532;6.426;2023-12-14T13:58:16;11.27;;;9.25;;
63005;SDS011;53704;52.532;6.426;2023-12-14T14:00:43;16.15;;;9.30;;
63005;SDS011;53704;52.532;6.426;2023-12-14T14:03:09;12.93;;;8.93;;
63005;SDS011;53704;52.532;6.426;2023-12-14T14:05:35;10.32;;;9.20;;
63005;SDS011;53704;52.532;6.426;2023-12-14T14:08:00;11.27;;;8.77;;
63005;SDS011;53704;52.532;6.426;2023-12-14T14:10:26;10.30;;;8.32;;
63005;SDS011;53704;52.532;6.426;2023-12-14T14:12:52;13.35;;;9.20;;
63005;SDS011;53704;52.532;6.426;2023-12-14T14:15:18;9.80;;;8.35;;
63005;SDS011;53704;52.532;6.426;2023-12-14T14:17:45;9.40;;;8.35;;
63005;SDS011;53704;52.532;6.426;2023-12-14T14:20:13;10.15;;;8.85;;
63005;SDS011;53704;52.532;6.426;2023-12-14T14:22:38;11.35;;;9.10;;
63005;SDS011;53704;52.532;6.426;2023-12-14T14:25:05;14.50;;;10.70;;
63005;SDS011;53704;52.532;6.426;2023-12-14T14:27:34;23.25;;;15.52;;
63005;SDS011;53704;52.532;6.426;2023-12-14T14:29:59;14.68;;;11.95;;
63005;SDS011;53704;52.532;6.426;2023-12-14T14:32:25;10.77;;;9.23;;
63005;SDS011;53704;52.532;6.426;2023-12-14T14:34:51;10.32;;;8.70;;
63005;SDS011;53704;52.532;6.426;2023-12-14T14:37:18;10.05;;;9.02;;